Time;durP1;ratioP1;P1;durP2;ratioP2;P2;SDS_P1;SDS_P2;PMS_P1;PMS_P2;Temp;Humidity;BMP_temperature;BMP_pressure;BME280_temperature;BME280_humidity;BME280_pressure;Samples;Min_cycle;Max_cycle;Signal;HPM_P1;HPM_P2
2021/06/02 00:01:58;;;;;;;8.47;3.17;;;21.10;1.00;;;;;;4974926;28;20180;-77
2021/06/02 00:04:30;;;;;;;4.87;3.03;;;21.10;1.00;;;;;;4975685;28;20180;-77
2021/06/02 00:06:59;;;;;;;3.53;2.80;;;21.20;1.00;;;;;;4975736;28;20265;-75
2021/06/02 00:09:27;;;;;;;5.57;3.53;;;21.10;1.00;;;;;;4975809;28;20197;-75
2021/06/02 00:11:55;;;;;;;4.47;3.30;;;21.10;1.00;;;;;;4975673;28;20228;-76
2021/06/02 00:14:23;;;;;;;3.87;2.63;;;21.00;1.00;;;;;;4975224;28;20166;-76
2021/06/02 00:16:50;;;;;;;4.87;3.00;;;21.00;1.00;;;;;;4975196;28;20186;-75
2021/06/02 00:19:16;;;;;;;3.67;2.43;;;21.00;57.20;;;;;;4975831;28;20196;-76
2021/06/02 00:21:42;;;;;;;4.67;2.90;;;20.80;90.10;;;;;;4975239;28;20697;-76
2021/06/02 00:24:08;;;;;;;4.50;3.40;;;20.70;99.90;;;;;;4975676;28;20185;-77
2021/06/02 00:26:35;;;;;;;7.17;3.53;;;20.30;99.90;;;;;;4975645;28;20667;-76
2021/06/02 00:29:05;;;;;;;7.13;3.60;;;20.00;99.90;;;;;;4976099;28;20184;-77
2021/06/02 00:31:32;;;;;;;5.07;3.43;;;19.70;99.90;;;;;;4975328;28;20259;-77
2021/06/02 00:34:01;;;;;;;6.63;3.73;;;19.60;1.00;;;;;;4990014;28;20625;-75
2021/06/02 00:36:29;;;;;;;4.07;3.17;;;19.50;1.00;;;;;;4975229;28;20624;-76
2021/06/02 00:38:55;;;;;;;5.03;2.90;;;19.40;1.00;;;;;;4975499;28;20977;-76
2021/06/02 00:41:22;;;;;;;9.40;3.73;;;19.30;99.90;;;;;;4975709;28;20250;-75
2021/06/02 00:43:48;;;;;;;4.77;3.57;;;19.20;99.90;;;;;;4975682;28;20339;-78
2021/06/02 00:46:15;;;;;;;8.57;3.90;;;19.10;1.00;;;;;;4975316;28;20210;-75
2021/06/02 00:48:44;;;;;;;4.57;3.67;;;19.00;99.90;;;;;;4975896;28;20214;-76
2021/06/02 00:51:10;;;;;;;5.53;3.80;;;19.00;1.00;;;;;;4975415;28;20180;-78
2021/06/02 00:53:37;;;;;;;6.10;3.57;;;18.80;1.00;;;;;;4975512;28;20163;-75
2021/06/02 00:56:05;;;;;;;5.77;3.10;;;18.80;22.00;;;;;;4975266;28;20180;-76
2021/06/02 00:58:43;;;;;;;5.70;3.60;;;18.80;99.90;;;;;;4974983;28;20176;-76
2021/06/02 01:01:09;;;;;;;5.17;3.53;;;18.80;99.90;;;;;;4975164;28;20163;-75
2021/06/02 01:03:36;;;;;;;5.73;3.23;;;18.80;99.90;;;;;;4975770;28;20178;-77
2021/06/02 01:06:02;;;;;;;5.37;3.70;;;18.80;99.90;;;;;;4974294;28;20711;-75
2021/06/02 01:08:30;;;;;;;9.13;3.90;;;18.70;1.00;;;;;;4974508;28;20210;-75
2021/06/02 01:10:57;;;;;;;8.50;3.60;;;18.60;1.00;;;;;;4974882;28;20694;-76
2021/06/02 01:13:23;;;;;;;5.57;3.43;;;18.50;99.90;;;;;;4978108;28;20168;-77
2021/06/02 01:15:52;;;;;;;6.03;3.93;;;18.40;1.00;;;;;;4978724;28;20205;-77
2021/06/02 01:18:19;;;;;;;5.10;3.30;;;18.40;1.00;;;;;;4979203;28;20175;-76
2021/06/02 01:20:46;;;;;;;4.83;3.30;;;18.30;1.00;;;;;;4978956;28;20179;-74
2021/06/02 01:23:12;;;;;;;5.57;3.47;;;18.30;1.00;;;;;;4978878;28;20192;-78
2021/06/02 01:25:43;;;;;;;6.03;3.87;;;18.40;1.00;;;;;;4978811;28;20195;-76
2021/06/02 01:28:09;;;;;;;6.60;3.50;;;18.30;1.00;;;;;;4978660;28;20207;-75
2021/06/02 01:30:36;;;;;;;6.57;3.70;;;18.30;1.00;;;;;;4978916;28;20172;-76
2021/06/02 01:33:16;;;;;;;5.67;3.90;;;18.40;1.00;;;;;;4978123;28;20250;-76
2021/06/02 01:36:10;;;;;;;4.27;3.50;;;18.40;1.00;;;;;;4978358;28;20259;-77
2021/06/02 01:39:22;;;;;;;5.20;3.90;;;18.40;99.90;;;;;;4993578;28;20175;-75
2021/06/02 01:42:01;;;;;;;5.87;3.97;;;18.40;99.90;;;;;;4978862;28;20167;-75
2021/06/02 01:45:04;;;;;;;5.57;3.30;;;18.40;99.90;;;;;;4978759;28;20199;-76
2021/06/02 01:48:07;;;;;;;4.43;3.60;;;18.40;99.90;;;;;;4977736;28;20219;-76
2021/06/02 01:50:42;;;;;;;7.53;3.90;;;18.40;85.60;;;;;;4978597;28;20291;-76
2021/06/02 01:53:36;;;;;;;4.63;3.80;;;18.40;99.90;;;;;;4978596;28;20172;-76
2021/06/02 01:56:24;;;;;;;6.30;3.50;;;18.50;1.00;;;;;;4978299;28;20198;-76
2021/06/02 01:59:09;;;;;;;5.53;3.57;;;18.30;1.00;;;;;;4986771;28;20726;-76
2021/06/02 02:01:53;;;;;;;6.67;3.60;;;18.30;1.00;;;;;;4978922;28;20644;-77
2021/06/02 02:04:43;;;;;;;6.80;4.00;;;18.40;99.90;;;;;;4976320;28;20179;-76
2021/06/02 02:07:20;;;;;;;6.67;3.60;;;18.40;1.00;;;;;;4977764;28;20270;-76
2021/06/02 02:09:54;;;;;;;6.87;4.23;;;18.30;1.00;;;;;;4977703;28;20198;-77
2021/06/02 02:12:38;;;;;;;5.83;4.07;;;18.30;1.00;;;;;;4976676;28;20184;-77
2021/06/02 02:15:16;;;;;;;6.30;4.00;;;18.20;1.00;;;;;;4977161;28;20640;-76
2021/06/02 02:18:12;;;;;;;6.30;3.90;;;18.30;1.00;;;;;;4976999;28;20262;-78
2021/06/02 02:20:56;;;;;;;4.70;3.57;;;18.40;99.90;;;;;;4977143;28;20182;-78
2021/06/02 02:23:38;;;;;;;6.50;4.03;;;18.30;1.00;;;;;;4976463;28;20176;-77
2021/06/02 02:26:29;;;;;;;4.60;4.07;;;18.20;1.00;;;;;;4977322;28;20191;-75
2021/06/02 02:29:22;;;;;;;6.57;4.00;;;18.30;1.00;;;;;;4977342;28;20188;-77
2021/06/02 02:32:09;;;;;;;5.10;3.97;;;18.30;1.00;;;;;;4976906;28;20184;-78
2021/06/02 02:34:53;;;;;;;7.20;3.80;;;18.30;1.00;;;;;;4976468;28;20222;-76
2021/06/02 02:37:46;;;;;;;7.63;3.80;;;18.30;1.00;;;;;;4975376;28;20179;-79
2021/06/02 02:40:27;;;;;;;7.70;4.17;;;18.30;1.00;;;;;;4976317;28;20535;-77
2021/06/02 02:43:32;;;;;;;8.10;4.47;;;18.30;1.00;;;;;;4976755;28;20170;-77
2021/06/02 02:46:15;;;;;;;5.40;4.17;;;18.30;1.00;;;;;;4976555;28;20168;-76
2021/06/02 02:48:52;;;;;;;5.73;4.33;;;18.30;1.00;;;;;;4976315;28;20234;-75
2021/06/02 02:51:43;;;;;;;6.40;3.87;;;18.20;99.90;;;;;;4976479;28;20175;-76
2021/06/02 02:54:37;;;;;;;6.13;4.20;;;18.20;61.90;;;;;;4975942;28;20310;-77
2021/06/02 02:57:46;;;;;;;6.67;4.13;;;18.10;99.90;;;;;;4968560;28;20184;-75
2021/06/02 03:00:21;;;;;;;7.53;4.50;;;17.90;99.90;;;;;;4976027;28;20171;-75
2021/06/02 03:03:05;;;;;;;6.93;4.23;;;17.90;99.90;;;;;;4976225;28;20178;-77
2021/06/02 03:05:34;;;;;;;7.03;4.43;;;18.00;99.90;;;;;;4976159;28;20167;-76
2021/06/02 03:08:12;;;;;;;7.00;4.50;;;18.10;99.90;;;;;;4976130;28;20207;-77
2021/06/02 03:10:43;;;;;;;8.03;4.40;;;18.10;99.90;;;;;;4975743;28;20191;-76
2021/06/02 03:13:21;;;;;;;8.83;4.70;;;18.00;99.90;;;;;;4975900;28;20260;-76
2021/06/02 03:15:52;;;;;;;8.37;4.73;;;17.90;99.90;;;;;;4975874;28;20651;-75
2021/06/02 03:18:39;;;;;;;7.07;4.97;;;17.90;99.90;;;;;;4976078;28;20245;-75
2021/06/02 03:21:27;;;;;;;7.60;4.83;;;17.70;1.00;;;;;;4975832;28;20168;-76
2021/06/02 03:24:17;;;;;;;6.97;5.17;;;17.70;1.00;;;;;;4974352;28;20187;-75
2021/06/02 03:27:05;;;;;;;7.47;5.30;;;17.70;1.00;;;;;;4975452;28;20682;-75
2021/06/02 03:29:40;;;;;;;9.17;5.13;;;17.60;1.00;;;;;;4976106;28;20667;-75
2021/06/02 03:32:19;;;;;;;10.73;5.43;;;17.60;1.00;;;;;;4975845;28;20206;-74
2021/06/02 03:35:07;;;;;;;8.87;5.50;;;17.50;1.00;;;;;;4975731;28;20171;-75
2021/06/02 03:37:53;;;;;;;7.63;5.30;;;17.30;1.00;;;;;;4974157;28;20183;-75
2021/06/02 03:40:46;;;;;;;8.93;5.87;;;17.20;1.00;;;;;;4975764;28;20160;-75
2021/06/02 03:43:27;;;;;;;10.37;5.87;;;17.20;1.00;;;;;;4975696;28;20179;-75
2021/06/02 03:46:32;;;;;;;10.07;5.57;;;17.10;1.00;;;;;;4974118;28;20171;-76
2021/06/02 03:49:11;;;;;;;12.47;6.93;;;17.20;1.00;;;;;;4975296;28;20203;-76
2021/06/02 03:51:54;;;;;;;13.83;6.53;;;17.20;1.00;;;;;;4975804;28;20265;-76
2021/06/02 03:54:37;;;;;;;11.03;6.50;;;17.20;1.00;;;;;;4977306;28;20178;-76
2021/06/02 03:57:24;;;;;;;9.90;6.33;;;17.10;1.00;;;;;;4976393;28;20172;-75
2021/06/02 04:00:11;;;;;;;7.77;6.10;;;17.20;1.00;;;;;;4975754;28;20699;-77
2021/06/02 04:02:51;;;;;;;9.17;6.07;;;17.20;1.00;;;;;;4975246;28;20169;-77
2021/06/02 04:05:54;;;;;;;11.03;6.27;;;17.10;1.00;;;;;;4975413;28;20187;-74
2021/06/02 04:08:38;;;;;;;11.50;6.63;;;17.20;1.00;;;;;;4975265;28;20278;-76
2021/06/02 04:11:35;;;;;;;11.33;5.67;;;17.20;1.00;;;;;;4975448;28;20191;-76
2021/06/02 04:14:05;;;;;;;10.77;6.37;;;17.30;1.00;;;;;;4975639;28;20219;-74
2021/06/02 04:16:36;;;;;;;11.63;6.47;;;17.10;1.00;;;;;;4975305;28;20168;-75
2021/06/02 04:19:05;;;;;;;14.47;6.60;;;17.20;1.00;;;;;;4976443;28;20170;-75
2021/06/02 04:21:34;;;;;;;11.73;6.33;;;17.20;1.00;;;;;;4973631;28;20175;-77
2021/06/02 04:24:03;;;;;;;13.70;6.90;;;17.30;1.00;;;;;;4974819;28;20254;-75
2021/06/02 04:26:31;;;;;;;11.47;6.60;;;17.30;1.00;;;;;;4974571;28;20644;-76
2021/06/02 04:28:59;;;;;;;11.90;6.73;;;17.30;1.00;;;;;;4974775;28;20172;-75
2021/06/02 04:31:28;;;;;;;16.97;7.00;;;17.30;1.00;;;;;;4990239;28;20180;-74
2021/06/02 04:33:56;;;;;;;13.73;7.07;;;17.30;1.00;;;;;;4975341;28;20226;-76
2021/06/02 04:36:24;;;;;;;13.17;6.33;;;17.40;1.00;;;;;;4974602;28;20635;-75
2021/06/02 04:38:50;;;;;;;13.43;6.40;;;17.40;1.00;;;;;;4975450;28;20246;-75
2021/06/02 04:41:20;;;;;;;10.97;6.13;;;17.50;1.00;;;;;;4974877;28;20190;-76
2021/06/02 04:43:46;;;;;;;11.47;6.57;;;17.60;1.00;;;;;;4974689;28;20172;-75
2021/06/02 04:46:12;;;;;;;15.77;6.70;;;17.60;1.00;;;;;;4974368;28;20187;-76
2021/06/02 04:48:37;;;;;;;14.60;6.67;;;17.70;1.00;;;;;;4974639;28;20555;-76
2021/06/02 04:51:22;;;;;;;20.00;7.67;;;17.70;1.00;;;;;;4989179;28;20194;-77
2021/06/02 04:54:25;;;;;;;17.00;6.97;;;17.70;1.00;;;;;;4974411;28;20175;-76
2021/06/02 04:57:06;;;;;;;15.93;6.90;;;17.60;1.00;;;;;;4974553;28;20175;-76
2021/06/02 04:59:53;;;;;;;16.63;6.83;;;17.60;1.00;;;;;;4974255;28;20171;-76
2021/06/02 05:02:56;;;;;;;15.43;7.10;;;17.70;1.00;;;;;;4974429;28;20239;-76
2021/06/02 05:05:50;;;;;;;13.30;6.03;;;17.80;1.00;;;;;;4974182;28;20218;-77
2021/06/02 05:08:21;;;;;;;17.40;6.03;;;17.90;1.00;;;;;;4974845;28;20199;-75
2021/06/02 05:10:59;;;;;;;22.83;9.20;;;18.00;99.90;;;;;;4974684;28;20196;-76
2021/06/02 05:13:50;;;;;;;11.40;5.47;;;18.20;99.90;;;;;;4973952;28;20167;-76
2021/06/02 05:16:30;;;;;;;12.00;5.97;;;18.30;46.50;;;;;;4974209;28;20178;-76
2021/06/02 05:19:35;;;;;;;11.90;6.13;;;18.50;49.30;;;;;;4974772;28;20270;-76
2021/06/02 05:22:12;;;;;;;10.67;5.30;;;18.60;1.00;;;;;;4975326;28;20228;-77
2021/06/02 05:24:59;;;;;;;10.63;4.97;;;18.80;1.00;;;;;;4975565;28;20160;-75
2021/06/02 05:27:52;;;;;;;11.37;5.33;;;18.90;99.90;;;;;;4974252;28;20211;-76
2021/06/02 05:30:50;;;;;;;7.20;4.60;;;19.00;99.90;;;;;;4974974;28;20633;-78
2021/06/02 05:33:46;;;;;;;9.93;5.47;;;19.00;99.90;;;;;;4975023;28;20172;-76
2021/06/02 05:36:36;;;;;;;12.07;5.30;;;19.00;1.00;;;;;;4974286;28;20644;-75
2021/06/02 05:39:20;;;;;;;14.17;8.03;;;19.10;99.90;;;;;;4973940;28;20172;-75
2021/06/02 05:42:17;;;;;;;13.93;5.77;;;19.20;1.00;;;;;;4974591;28;20180;-78
2021/06/02 05:45:24;;;;;;;9.83;5.07;;;19.40;35.10;;;;;;4974806;28;20172;-79
2021/06/02 05:47:49;;;;;;;12.43;4.87;;;19.50;99.90;;;;;;4974308;28;20203;-78
2021/06/02 05:50:24;;;;;;;8.80;4.70;;;19.60;32.20;;;;;;4974328;28;20712;-77
2021/06/02 05:53:28;;;;;;;12.80;5.10;;;19.70;99.90;;;;;;4973615;28;20539;-78
2021/06/02 05:56:12;;;;;;;13.47;5.23;;;19.90;99.90;;;;;;4976120;28;20222;-78
2021/06/02 05:58:55;;;;;;;11.80;7.20;;;20.00;99.90;;;;;;4972933;28;20181;-77
2021/06/02 06:01:52;;;;;;;9.60;4.27;;;20.10;1.00;;;;;;4978064;28;20228;-78
2021/06/02 06:04:48;;;;;;;11.60;4.40;;;20.10;1.00;;;;;;4978479;28;20637;-78
2021/06/02 06:07:51;;;;;;;8.80;4.20;;;20.20;99.90;;;;;;4993419;28;20208;-77
2021/06/02 06:10:38;;;;;;;10.20;4.10;;;20.20;99.90;;;;;;4978013;28;20283;-78
2021/06/02 06:13:38;;;;;;;11.20;3.87;;;20.30;1.00;;;;;;4997608;28;20182;-79
2021/06/02 06:16:12;;;;;;;9.30;3.70;;;20.50;99.90;;;;;;4996999;28;20180;-77
2021/06/02 06:18:52;;;;;;;10.63;4.30;;;20.50;89.30;;;;;;4997483;28;20168;-79
2021/06/02 06:21:55;;;;;;;7.30;3.77;;;20.50;99.90;;;;;;4999518;28;20180;-76
2021/06/02 06:24:24;;;;;;;10.27;3.33;;;20.50;99.10;;;;;;4999044;28;20179;-78
2021/06/02 06:27:17;;;;;;;8.07;3.60;;;20.80;77.10;;;;;;4998523;28;20193;-77
2021/06/02 06:29:53;;;;;;;8.67;4.00;;;20.80;99.90;;;;;;5000522;28;20195;-79
2021/06/02 06:32:20;;;;;;;13.17;3.87;;;20.90;1.00;;;;;;5009697;28;20183;-76
2021/06/02 06:34:48;;;;;;;7.07;3.33;;;20.90;1.00;;;;;;5009277;28;20188;-77
2021/06/02 06:37:16;;;;;;;6.73;3.27;;;21.10;99.90;;;;;;5002562;28;20206;-75
2021/06/02 06:39:46;;;;;;;7.93;2.90;;;21.20;99.90;;;;;;4996388;28;20300;-77
2021/06/02 06:42:16;;;;;;;7.07;3.30;;;21.30;99.90;;;;;;4996952;28;20185;-76
2021/06/02 06:44:44;;;;;;;8.03;3.47;;;21.40;21.40;;;;;;4996713;28;20230;-80
2021/06/02 06:47:14;;;;;;;8.17;3.13;;;21.40;1.00;;;;;;4998049;28;20198;-81
2021/06/02 06:49:42;;;;;;;6.90;3.30;;;21.50;1.00;;;;;;4999826;28;20672;-76
2021/06/02 06:52:09;;;;;;;8.57;3.60;;;21.70;93.70;;;;;;4982840;28;20607;-76
2021/06/02 06:54:35;;;;;;;5.30;3.00;;;21.70;1.00;;;;;;5013597;28;20181;-76
2021/06/02 06:57:02;;;;;;;6.20;2.80;;;21.90;1.00;;;;;;4998755;28;20192;-75
2021/06/02 06:59:28;;;;;;;7.43;2.93;;;22.00;1.00;;;;;;4995505;28;20174;-81
2021/06/02 07:01:54;;;;;;;9.37;3.50;;;22.10;1.00;;;;;;4996104;28;20182;-77
2021/06/02 07:04:22;;;;;;;7.30;2.73;;;22.10;1.00;;;;;;4995297;28;20690;-77
2021/06/02 07:06:48;;;;;;;3.83;2.43;;;22.30;1.00;;;;;;4996477;28;20246;-78
2021/06/02 07:09:14;;;;;;;8.60;2.83;;;22.30;99.90;;;;;;4996612;28;20301;-76
2021/06/02 07:11:41;;;;;;;5.77;2.83;;;22.40;99.90;;;;;;4996552;28;20634;-80
2021/06/02 07:14:15;;;;;;;7.23;2.77;;;22.50;99.90;;;;;;4996251;28;20199;-77
2021/06/02 07:16:41;;;;;;;6.03;3.07;;;22.60;99.90;;;;;;4996088;28;20221;-77
2021/06/02 07:19:07;;;;;;;5.00;2.90;;;22.60;99.90;;;;;;4996113;28;20532;-77
2021/06/02 07:21:40;;;;;;;7.63;3.20;;;22.80;99.90;;;;;;4997777;28;20193;-76
2021/06/02 07:24:07;;;;;;;4.40;2.87;;;22.90;99.90;;;;;;4996438;28;20174;-80
2021/06/02 07:26:34;;;;;;;5.20;2.83;;;23.00;99.90;;;;;;4996817;28;20191;-76
2021/06/02 07:29:00;;;;;;;4.13;2.93;;;23.10;99.90;;;;;;4996457;28;20220;-78
2021/06/02 07:31:26;;;;;;;5.50;2.70;;;23.20;99.90;;;;;;4996915;28;20168;-78
2021/06/02 07:33:51;;;;;;;6.90;2.90;;;23.20;99.90;;;;;;4995397;28;20172;-76
2021/06/02 07:36:17;;;;;;;6.57;3.53;;;23.20;99.90;;;;;;4993699;28;20697;-78
2021/06/02 07:38:42;;;;;;;5.77;3.07;;;23.30;99.90;;;;;;4995248;28;20178;-78
2021/06/02 07:41:10;;;;;;;6.50;2.50;;;23.30;99.90;;;;;;4996482;28;20179;-78
2021/06/02 07:43:35;;;;;;;6.13;2.80;;;23.30;96.90;;;;;;4997936;28;20644;-79
2021/06/02 07:46:03;;;;;;;5.73;2.60;;;23.50;49.60;;;;;;4997506;28;20172;-79
2021/06/02 07:48:29;;;;;;;3.67;2.30;;;23.60;9.50;;;;;;4996485;28;20268;-78
2021/06/02 07:50:55;;;;;;;9.97;3.10;;;23.60;16.30;;;;;;4999274;28;20200;-77
2021/06/02 07:53:21;;;;;;;6.80;2.53;;;23.80;32.20;;;;;;5000372;28;20237;-77
2021/06/02 07:55:46;;;;;;;4.83;2.57;;;24.00;1.00;;;;;;4996846;28;20169;-78
2021/06/02 07:58:12;;;;;;;6.00;2.40;;;24.30;1.00;;;;;;4996391;28;20696;-79
2021/06/02 08:00:38;;;;;;;8.13;2.90;;;24.40;1.00;;;;;;4992170;28;20212;-79
2021/06/02 08:03:06;;;;;;;4.17;2.50;;;24.50;1.00;;;;;;4984861;28;20219;-74
2021/06/02 08:05:32;;;;;;;8.03;3.23;;;24.70;1.00;;;;;;4981905;28;20596;-74
2021/06/02 08:07:57;;;;;;;6.00;2.47;;;24.40;1.00;;;;;;4974286;28;20215;-77
2021/06/02 08:10:23;;;;;;;5.27;2.87;;;24.20;1.00;;;;;;4991880;28;20192;-74
2021/06/02 08:12:49;;;;;;;5.93;2.60;;;24.20;1.00;;;;;;4989657;28;20178;-75
2021/06/02 08:15:16;;;;;;;7.60;2.50;;;24.30;1.00;;;;;;4983930;28;20188;-77
2021/06/02 08:17:42;;;;;;;6.23;2.63;;;24.40;1.00;;;;;;4983124;28;20181;-75
2021/06/02 08:20:11;;;;;;;7.27;2.60;;;24.40;1.00;;;;;;4996392;28;20661;-77
2021/06/02 08:22:37;;;;;;;6.00;2.57;;;24.60;1.00;;;;;;4995017;28;20164;-76
2021/06/02 08:25:06;;;;;;;6.80;2.40;;;24.60;1.00;;;;;;4994401;28;20689;-79
2021/06/02 08:27:32;;;;;;;5.97;2.70;;;24.50;1.00;;;;;;4996752;28;20219;-80
2021/06/02 08:29:59;;;;;;;5.37;3.20;;;24.50;1.00;;;;;;5009297;28;20185;-80
2021/06/02 08:32:25;;;;;;;9.03;2.73;;;24.50;1.00;;;;;;4994243;28;20185;-77
2021/06/02 08:34:52;;;;;;;4.70;2.40;;;24.60;1.00;;;;;;4985856;28;20174;-79
2021/06/02 08:37:18;;;;;;;6.77;2.47;;;24.90;1.00;;;;;;4974420;28;20206;-77
2021/06/02 08:39:44;;;;;;;7.30;2.73;;;24.90;1.00;;;;;;4973988;28;20189;-76
2021/06/02 08:42:11;;;;;;;3.57;2.43;;;24.90;1.00;;;;;;4989595;28;20174;-77
2021/06/02 08:44:37;;;;;;;4.93;2.17;;;24.80;1.00;;;;;;4975257;28;20224;-76
2021/06/02 08:47:04;;;;;;;5.20;2.33;;;24.80;1.00;;;;;;4975297;28;20620;-77
2021/06/02 08:49:30;;;;;;;8.27;2.17;;;24.90;1.00;;;;;;4974297;28;20207;-77
2021/06/02 08:52:00;;;;;;;12.33;3.20;;;24.90;1.00;;;;;;4973925;28;20201;-78
2021/06/02 08:54:25;;;;;;;4.07;2.30;;;25.00;1.00;;;;;;4980340;28;20189;-77
2021/06/02 08:56:52;;;;;;;5.07;2.37;;;25.10;1.00;;;;;;4978437;28;20221;-77
2021/06/02 08:59:18;;;;;;;3.13;2.20;;;25.10;1.00;;;;;;4975234;28;20643;-79
2021/06/02 09:01:44;;;;;;;4.17;2.50;;;25.20;1.00;;;;;;4973672;28;20183;-77
2021/06/02 09:04:10;;;;;;;7.27;2.23;;;25.10;1.00;;;;;;4973944;28;20191;-76
2021/06/02 09:06:38;;;;;;;5.63;2.23;;;25.10;1.00;;;;;;4973774;28;20171;-79
2021/06/02 09:09:05;;;;;;;5.27;2.20;;;25.20;1.00;;;;;;4984199;28;20304;-78
2021/06/02 09:11:38;;;;;;;5.27;2.37;;;24.90;1.00;;;;;;4995176;28;20171;-78
2021/06/02 09:14:22;;;;;;;5.40;2.10;;;24.90;1.00;;;;;;4992952;28;20190;-78
2021/06/02 09:16:49;;;;;;;5.27;2.20;;;25.00;1.00;;;;;;4994835;28;20310;-78
2021/06/02 09:19:14;;;;;;;6.40;2.27;;;25.00;1.00;;;;;;4994855;28;20768;-80
2021/06/02 09:21:40;;;;;;;8.00;2.73;;;25.00;1.00;;;;;;4994680;28;20178;-80
2021/06/02 09:24:06;;;;;;;8.47;2.20;;;25.10;1.00;;;;;;4995433;28;20182;-78
2021/06/02 09:26:32;;;;;;;5.67;2.53;;;25.20;1.00;;;;;;4996042;28;20210;-78
2021/06/02 09:29:24;;;;;;;4.90;2.33;;;25.40;1.00;;;;;;4997246;28;20203;-78
2021/06/02 09:31:49;;;;;;;5.73;2.70;;;25.60;1.00;;;;;;4993221;28;20534;-79
2021/06/02 09:34:19;;;;;;;6.13;2.50;;;26.00;1.00;;;;;;4997633;28;20175;-79
2021/06/02 09:36:53;;;;;;;3.77;2.30;;;26.00;1.00;;;;;;4998109;28;20191;-78
2021/06/02 09:39:21;;;;;;;5.03;2.13;;;25.80;1.00;;;;;;4996379;28;20232;-79
2021/06/02 09:41:57;;;;;;;4.90;2.23;;;25.80;1.00;;;;;;4996923;28;20163;-78
2021/06/02 09:44:24;;;;;;;5.43;2.03;;;25.80;1.00;;;;;;4996160;28;20642;-79
2021/06/02 09:47:09;;;;;;;4.33;2.50;;;25.90;1.00;;;;;;4999788;28;20179;-76
2021/06/02 09:49:51;;;;;;;6.20;2.23;;;25.60;1.00;;;;;;5008556;28;20188;-78
2021/06/02 09:52:36;;;;;;;6.00;2.77;;;25.60;1.00;;;;;;5019881;28;20177;-79
2021/06/02 09:55:17;;;;;;;5.23;2.50;;;25.70;1.00;;;;;;5016977;28;20174;-79
2021/06/02 09:57:45;;;;;;;8.10;3.17;;;25.80;1.00;;;;;;4977809;28;20209;-78
2021/06/02 10:00:13;;;;;;;7.03;2.93;;;25.60;1.00;;;;;;4977649;28;20198;-78
2021/06/02 10:02:40;;;;;;;3.80;2.20;;;25.70;1.00;;;;;;4978782;28;20179;-80
2021/06/02 10:05:08;;;;;;;4.53;1.90;;;25.80;1.00;;;;;;4999656;28;20185;-80
2021/06/02 10:07:53;;;;;;;4.40;2.10;;;25.80;1.00;;;;;;5018001;28;20670;-77
2021/06/02 10:10:20;;;;;;;5.50;3.53;;;26.00;1.00;;;;;;4998924;28;20185;-83
2021/06/02 10:13:07;;;;;;;5.67;2.47;;;26.30;1.00;;;;;;4999095;28;20174;-79
2021/06/02 10:15:41;;;;;;;4.97;2.37;;;26.50;1.00;;;;;;4996490;28;20171;-81
2021/06/02 10:18:30;;;;;;;3.90;1.90;;;26.50;1.00;;;;;;4998290;28;20183;-78
2021/06/02 10:21:13;;;;;;;5.67;2.57;;;26.20;1.00;;;;;;4997131;28;20171;-78
2021/06/02 10:23:46;;;;;;;3.10;2.20;;;26.20;1.00;;;;;;5017462;28;20261;-79
2021/06/02 10:26:17;;;;;;;5.67;2.63;;;26.40;1.00;;;;;;5017816;28;20174;-80
2021/06/02 10:28:45;;;;;;;7.83;3.20;;;26.50;1.00;;;;;;5016860;28;20291;-80
2021/06/02 10:31:12;;;;;;;4.80;2.87;;;26.50;1.00;;;;;;5017177;28;20216;-81
2021/06/02 10:33:38;;;;;;;8.23;2.20;;;26.90;1.00;;;;;;5017824;28;20173;-80
2021/06/02 10:36:06;;;;;;;3.17;2.20;;;27.20;1.00;;;;;;5018348;28;20170;-79
2021/06/02 10:38:41;;;;;;;4.10;2.30;;;27.50;1.00;;;;;;5016473;28;20708;-79
2021/06/02 10:41:14;;;;;;;5.00;2.33;;;27.50;1.00;;;;;;5016780;28;20570;-80
2021/06/02 10:43:47;;;;;;;3.37;2.40;;;27.40;1.00;;;;;;5016601;28;20174;-79
2021/06/02 10:46:19;;;;;;;7.10;2.77;;;27.70;1.00;;;;;;5015079;28;20279;-80
2021/06/02 10:48:52;;;;;;;5.30;2.43;;;27.60;1.00;;;;;;5016710;28;20309;-81
2021/06/02 10:51:27;;;;;;;3.70;2.50;;;27.40;1.00;;;;;;5016573;28;20601;-80
2021/06/02 10:54:30;;;;;;;2.10;1.80;;;27.30;1.00;;;;;;5018219;28;20622;-78
2021/06/02 10:57:11;;;;;;;4.70;2.73;;;27.10;1.00;;;;;;4995296;28;20210;-82
2021/06/02 10:59:39;;;;;;;4.60;2.17;;;27.50;1.00;;;;;;4996888;28;20171;-81
2021/06/02 11:02:10;;;;;;;6.20;2.60;;;27.70;1.00;;;;;;4997209;28;20256;-81
2021/06/02 11:04:38;;;;;;;4.57;2.60;;;27.60;1.00;;;;;;4997270;28;20746;-79
2021/06/02 11:07:38;;;;;;;4.07;2.40;;;27.40;1.00;;;;;;4995874;28;20266;-80
2021/06/02 11:10:05;;;;;;;8.57;2.97;;;27.30;1.00;;;;;;4993279;28;20197;-80
2021/06/02 11:12:49;;;;;;;5.23;2.50;;;27.50;1.00;;;;;;4999123;28;20163;-82
2021/06/02 11:15:48;;;;;;;2.67;1.97;;;27.60;1.00;;;;;;4993342;28;20275;-81
2021/06/02 11:18:21;;;;;;;3.57;2.57;;;27.20;1.00;;;;;;4964823;28;20201;-82
2021/06/02 11:21:00;;;;;;;2.83;2.20;;;27.10;1.00;;;;;;4998335;28;20174;-81
2021/06/02 11:23:32;;;;;;;4.70;2.00;;;27.20;1.00;;;;;;4978960;28;20168;-78
2021/06/02 11:26:26;;;;;;;4.07;1.93;;;27.60;1.00;;;;;;4978871;28;20169;-81
2021/06/02 11:28:53;;;;;;;8.40;3.03;;;28.00;1.00;;;;;;4981789;28;20207;-79
2021/06/02 11:31:29;;;;;;;3.53;2.30;;;28.10;1.00;;;;;;4995196;28;20179;-79
2021/06/02 11:34:26;;;;;;;3.93;2.50;;;28.10;1.00;;;;;;5000637;28;20249;-81
2021/06/02 11:37:03;;;;;;;3.87;2.40;;;28.40;1.00;;;;;;4992803;28;20223;-79
2021/06/02 11:39:29;;;;;;;5.33;2.53;;;28.70;1.00;;;;;;4997157;28;20207;-80
2021/06/02 11:41:58;;;;;;;4.43;2.20;;;28.80;1.00;;;;;;4996061;28;20167;-80
2021/06/02 11:44:28;;;;;;;4.70;2.38;;;28.70;1.00;;;;;;4996972;28;20175;-82
2021/06/02 11:46:54;;;;;;;4.23;2.40;;;28.90;1.00;;;;;;4997892;28;20518;-82
2021/06/02 11:49:31;;;;;;;5.33;2.33;;;29.20;1.00;;;;;;4998862;28;20264;-80
2021/06/02 11:52:12;;;;;;;6.43;2.42;;;29.20;1.00;;;;;;4996231;28;20187;-80
2021/06/02 11:55:02;;;;;;;6.13;2.50;;;29.00;1.00;;;;;;4989769;28;20197;-82
2021/06/02 11:57:30;;;;;;;2.95;2.20;;;29.30;1.00;;;;;;4988412;28;20178;-81
2021/06/02 11:59:57;;;;;;;5.75;2.22;;;29.40;1.00;;;;;;5004870;28;20189;-79
2021/06/02 12:02:23;;;;;;;8.37;2.57;;;29.00;1.00;;;;;;4994455;28;20478;-80
2021/06/02 12:04:49;;;;;;;4.75;2.08;;;28.60;1.00;;;;;;4995159;28;20643;-79
2021/06/02 12:07:22;;;;;;;3.65;1.95;;;28.30;1.00;;;;;;4994290;28;20211;-78
2021/06/02 12:09:52;;;;;;;4.07;2.08;;;28.20;1.00;;;;;;4988750;28;20186;-80
2021/06/02 12:12:19;;;;;;;6.40;2.47;;;28.30;1.00;;;;;;4993647;28;20198;-80
2021/06/02 12:15:00;;;;;;;5.20;2.38;;;28.60;1.00;;;;;;5001369;28;20196;-80
2021/06/02 12:17:27;;;;;;;4.47;2.35;;;28.80;1.00;;;;;;4993908;28;20178;-81
2021/06/02 12:19:52;;;;;;;4.93;2.50;;;29.20;1.00;;;;;;4993269;28;20680;-78
2021/06/02 12:22:20;;;;;;;2.78;2.00;;;29.30;1.00;;;;;;4992385;28;20171;-79
2021/06/02 12:25:06;;;;;;;3.67;2.30;;;28.80;1.00;;;;;;4996366;28;20182;-78
2021/06/02 12:27:44;;;;;;;3.30;2.07;;;28.60;1.00;;;;;;4993877;28;20251;-79
2021/06/02 12:30:12;;;;;;;3.67;2.00;;;28.30;1.00;;;;;;4994635;28;20233;-78
2021/06/02 12:32:43;;;;;;;4.77;2.33;;;28.10;1.00;;;;;;4993007;28;20525;-80
2021/06/02 12:35:24;;;;;;;4.95;2.63;;;28.20;1.00;;;;;;4993961;28;20179;-80
2021/06/02 12:38:29;;;;;;;4.27;2.40;;;28.50;1.00;;;;;;4993752;28;20196;-79
2021/06/02 12:41:01;;;;;;;4.73;2.43;;;28.50;1.00;;;;;;4984994;28;20208;-79
2021/06/02 12:43:42;;;;;;;3.45;2.38;;;28.90;1.00;;;;;;4996633;28;20173;-78
2021/06/02 12:46:10;;;;;;;5.68;2.50;;;29.10;1.00;;;;;;4990948;28;20180;-79
2021/06/02 12:48:40;;;;;;;6.28;2.45;;;28.90;1.00;;;;;;4974634;28;20285;-80
2021/06/02 12:51:11;;;;;;;4.03;2.50;;;28.80;1.00;;;;;;4990494;28;20282;-80
2021/06/02 12:53:42;;;;;;;3.28;2.10;;;29.00;1.00;;;;;;4993684;28;20190;-79
2021/06/02 12:56:09;;;;;;;4.93;1.92;;;28.90;1.00;;;;;;5003696;28;20222;-80
2021/06/02 12:58:39;;;;;;;3.65;2.13;;;29.00;1.00;;;;;;5001369;28;20654;-80
2021/06/02 13:01:06;;;;;;;6.47;2.40;;;28.90;1.00;;;;;;4993993;28;20673;-78
2021/06/02 13:03:34;;;;;;;4.05;2.30;;;28.90;1.00;;;;;;4991379;28;20175;-80
2021/06/02 13:06:00;;;;;;;3.13;2.30;;;28.70;1.00;;;;;;4993921;28;20510;-79
2021/06/02 13:08:38;;;;;;;4.27;2.07;;;28.70;1.00;;;;;;4993354;28;20210;-78
2021/06/02 13:11:11;;;;;;;4.72;2.35;;;28.60;1.00;;;;;;4982915;28;20202;-80
2021/06/02 13:13:38;;;;;;;3.67;2.17;;;28.80;1.00;;;;;;4992223;28;20171;-80
2021/06/02 13:16:06;;;;;;;7.75;2.75;;;29.00;1.00;;;;;;4996346;28;20182;-81
2021/06/02 13:18:33;;;;;;;5.15;2.50;;;29.50;1.00;;;;;;4976670;28;20171;-80
2021/06/02 13:21:11;;;;;;;4.28;2.45;;;29.90;1.00;;;;;;4994602;28;20198;-81
2021/06/02 13:23:42;;;;;;;3.78;2.47;;;30.20;1.00;;;;;;4996958;28;20185;-81
2021/06/02 13:26:13;;;;;;;5.75;2.80;;;30.40;1.00;;;;;;4995478;28;20179;-78
2021/06/02 13:28:47;;;;;;;3.58;2.30;;;30.50;1.00;;;;;;4987940;28;20249;-79
2021/06/02 13:31:15;;;;;;;3.30;2.35;;;30.20;1.00;;;;;;4976774;28;20541;-80
2021/06/02 13:33:46;;;;;;;3.55;2.72;;;30.30;1.00;;;;;;4987435;28;20179;-79
2021/06/02 13:36:17;;;;;;;4.55;2.58;;;30.40;1.00;;;;;;5002138;28;20231;-81